sensor_id;sensor_type;location;lat;lon;timestamp;pressure;altitude;pressure_sealevel;temperature;humidity
21100;BME280;10708;50.824;4.408;2023-03-15T00:04:14;100320.63;;;3.51;100.00
21100;BME280;10708;50.824;4.408;2023-03-15T00:09:16;100354.47;;;3.51;100.00
21100;BME280;10708;50.824;4.408;2023-03-15T00:14:18;100358.81;;;3.52;100.00
21100;BME280;10708;50.824;4.408;2023-03-15T00:19:22;100361.31;;;3.59;100.00
21100;BME280;10708;50.824;4.408;2023-03-15T00:24:24;100373.47;;;3.60;100.00
21100;BME280;10708;50.824;4.408;2023-03-15T00:29:26;100383.19;;;3.46;100.00
21100;BME280;10708;50.824;4.408;2023-03-15T00:34:31;100377.13;;;3.41;100.00
21100;BME280;10708;50.824;4.408;2023-03-15T00:39:33;100371.88;;;3.49;100.00
21100;BME280;10708;50.824;4.408;2023-03-15T00:44:37;100367.47;;;3.52;100.00
21100;BME280;10708;50.824;4.408;2023-03-15T00:49:41;100377.97;;;3.46;100.00
21100;BME280;10708;50.824;4.408;2023-03-15T00:54:48;100385.84;;;3.39;100.00
21100;BME280;10708;50.824;4.408;2023-03-15T00:59:53;100392.91;;;3.26;100.00
21100;BME280;10708;50.824;4.408;2023-03-15T01:04:56;100390.53;;;2.97;100.00
21100;BME280;10708;50.824;4.408;2023-03-15T01:09:59;100395.03;;;2.77;100.00
21100;BME280;10708;50.824;4.408;2023-03-15T01:15:05;100402.94;;;2.58;100.00
21100;BME280;10708;50.824;4.408;2023-03-15T01:20:11;100409.97;;;2.40;100.00
21100;BME280;10708;50.824;4.408;2023-03-15T01:25:14;100414.41;;;2.19;100.00
21100;BME280;10708;50.824;4.408;2023-03-15T01:30:16;100427.41;;;2.16;100.00
21100;BME280;10708;50.824;4.408;2023-03-15T01:35:20;100426.53;;;2.11;100.00
21100;BME280;10708;50.824;4.408;2023-03-15T01:40:22;100432.59;;;2.16;100.00
21100;BME280;10708;50.824;4.408;2023-03-15T01:51:15;100432.53;;;2.32;100.00
21100;BME280;10708;50.824;4.408;2023-03-15T01:56:18;100438.59;;;2.38;100.00
21100;BME280;10708;50.824;4.408;2023-03-15T02:01:21;100440.28;;;2.45;100.00
21100;BME280;10708;50.824;4.408;2023-03-15T02:06:25;100436.75;;;2.51;100.00
21100;BME280;10708;50.824;4.408;2023-03-15T02:11:27;100431.56;;;2.55;100.00
21100;BME280;10708;50.824;4.408;2023-03-15T02:16:30;100428.03;;;2.63;100.00
21100;BME280;10708;50.824;4.408;2023-03-15T02:21:41;100419.31;;;2.70;100.00
21100;BME280;10708;50.824;4.408;2023-03-15T02:26:51;100435.78;;;2.75;100.00
21100;BME280;10708;50.824;4.408;2023-03-15T02:31:56;100427.06;;;2.82;100.00
21100;BME280;10708;50.824;4.408;2023-03-15T02:36:59;100447.84;;;2.88;100.00
21100;BME280;10708;50.824;4.408;2023-03-15T02:42:02;100444.38;;;2.87;100.00
21100;BME280;10708;50.824;4.408;2023-03-15T02:47:09;100454.72;;;2.92;100.00
21100;BME280;10708;50.824;4.408;2023-03-15T02:52:13;100453.00;;;2.95;100.00
21100;BME280;10708;50.824;4.408;2023-03-15T02:57:17;100457.34;;;2.93;100.00
21100;BME280;10708;50.824;4.408;2023-03-15T03:02:21;100474.69;;;2.90;100.00
21100;BME280;10708;50.824;4.408;2023-03-15T03:07:23;100481.66;;;2.89;100.00
21100;BME280;10708;50.824;4.408;2023-03-15T03:12:25;100499.88;;;2.85;100.00
21100;BME280;10708;50.824;4.408;2023-03-15T03:17:29;100499.88;;;2.86;100.00
21100;BME280;10708;50.824;4.408;2023-03-15T03:22:31;100507.69;;;2.85;100.00
21100;BME280;10708;50.824;4.408;2023-03-15T03:27:34;100512.88;;;2.86;100.00
21100;BME280;10708;50.824;4.408;2023-03-15T03:32:38;100520.69;;;2.88;100.00
21100;BME280;10708;50.824;4.408;2023-03-15T03:37:40;100523.28;;;2.86;100.00
21100;BME280;10708;50.824;4.408;2023-03-15T03:42:43;100525.88;;;2.86;100.00
21100;BME280;10708;50.824;4.408;2023-03-15T03:47:46;100524.16;;;2.87;100.00
21100;BME280;10708;50.824;4.408;2023-03-15T03:52:50;100531.94;;;2.85;100.00
21100;BME280;10708;50.824;4.408;2023-03-15T03:57:53;100536.31;;;2.79;100.00
21100;BME280;10708;50.824;4.408;2023-03-15T04:02:57;100551.94;;;2.76;100.00
21100;BME280;10708;50.824;4.408;2023-03-15T04:07:59;100562.34;;;2.77;100.00
21100;BME280;10708;50.824;4.408;2023-03-15T04:13:01;100568.38;;;2.81;100.00
21100;BME280;10708;50.824;4.408;2023-03-15T04:18:05;100577.91;;;2.85;100.00
21100;BME280;10708;50.824;4.408;2023-03-15T04:23:07;100579.63;;;2.86;100.00
21100;BME280;10708;50.824;4.408;2023-03-15T04:28:10;100577.00;;;2.90;100.00
21100;BME280;10708;50.824;4.408;2023-03-15T04:33:13;100578.72;;;2.96;100.00
21100;BME280;10708;50.824;4.408;2023-03-15T04:38:16;100580.41;;;3.03;100.00
21100;BME280;10708;50.824;4.408;2023-03-15T04:43:18;100583.88;;;3.07;100.00
21100;BME280;10708;50.824;4.408;2023-03-15T04:48:21;100597.72;;;3.10;100.00
21100;BME280;10708;50.824;4.408;2023-03-15T04:53:24;100594.28;;;3.08;100.00
21100;BME280;10708;50.824;4.408;2023-03-15T04:58:26;100613.38;;;3.03;100.00
21100;BME280;10708;50.824;4.408;2023-03-15T05:03:30;100613.41;;;2.92;100.00
21100;BME280;10708;50.824;4.408;2023-03-15T05:08:32;100622.13;;;2.86;100.00
21100;BME280;10708;50.824;4.408;2023-03-15T05:13:34;100629.09;;;2.78;100.00
21100;BME280;10708;50.824;4.408;2023-03-15T05:18:38;100632.56;;;2.71;100.00
21100;BME280;10708;50.824;4.408;2023-03-15T05:23:40;100636.06;;;2.66;100.00
21100;BME280;10708;50.824;4.408;2023-03-15T05:28:43;100638.66;;;2.64;100.00
21100;BME280;10708;50.824;4.408;2023-03-15T05:33:47;100651.69;;;2.55;100.00
21100;BME280;10708;50.824;4.408;2023-03-15T05:38:49;100662.06;;;2.52;100.00
21100;BME280;10708;50.824;4.408;2023-03-15T05:43:51;100657.75;;;2.46;100.00
21100;BME280;10708;50.824;4.408;2023-03-15T05:48:55;100663.81;;;2.45;100.00
21100;BME280;10708;50.824;4.408;2023-03-15T05:53:58;100667.28;;;2.47;100.00
21100;BME280;10708;50.824;4.408;2023-03-15T05:59:00;100678.53;;;2.52;100.00
21100;BME280;10708;50.824;4.408;2023-03-15T06:04:05;100670.75;;;2.55;100.00
21100;BME280;10708;50.824;4.408;2023-03-15T06:09:08;100688.94;;;2.52;100.00
21100;BME280;10708;50.824;4.408;2023-03-15T06:14:10;100690.69;;;2.47;100.00
21100;BME280;10708;50.824;4.408;2023-03-15T06:19:14;100698.47;;;2.44;100.00
21100;BME280;10708;50.824;4.408;2023-03-15T06:24:16;100705.41;;;2.42;100.00
21100;BME280;10708;50.824;4.408;2023-03-15T06:29:19;100705.44;;;2.39;100.00
21100;BME280;10708;50.824;4.408;2023-03-15T06:34:23;100721.88;;;2.38;100.00
21100;BME280;10708;50.824;4.408;2023-03-15T06:39:26;100720.16;;;2.39;100.00
21100;BME280;10708;50.824;4.408;2023-03-15T06:44:28;100721.88;;;2.41;100.00
21100;BME280;10708;50.824;4.408;2023-03-15T06:49:32;100734.88;;;2.43;100.00
21100;BME280;10708;50.824;4.408;2023-03-15T06:54:35;100743.53;;;2.46;100.00
21100;BME280;10708;50.824;4.408;2023-03-15T06:59:37;100745.28;;;2.49;100.00
21100;BME280;10708;50.824;4.408;2023-03-15T07:04:42;100766.09;;;2.58;100.00
21100;BME280;10708;50.824;4.408;2023-03-15T07:09:45;100762.63;;;2.67;100.00
21100;BME280;10708;50.824;4.408;2023-03-15T07:14:48;100770.41;;;2.77;100.00
21100;BME280;10708;50.824;4.408;2023-03-15T07:19:52;100779.91;;;3.00;100.00
21100;BME280;10708;50.824;4.408;2023-03-15T07:24:54;100781.63;;;3.11;100.00
21100;BME280;10708;50.824;4.408;2023-03-15T07:29:57;100789.44;;;3.17;100.00
21100;BME280;10708;50.824;4.408;2023-03-15T07:35:02;100805.88;;;3.22;100.00
21100;BME280;10708;50.824;4.408;2023-03-15T07:40:06;100817.97;;;3.52;100.00
21100;BME280;10708;50.824;4.408;2023-03-15T07:45:11;100817.94;;;3.61;100.00
21100;BME280;10708;50.824;4.408;2023-03-15T07:50:16;100828.38;;;3.51;100.00
21100;BME280;10708;50.824;4.408;2023-03-15T07:55:18;100826.63;;;3.66;100.00
21100;BME280;10708;50.824;4.408;2023-03-15T08:00:21;100832.47;;;4.16;100.00
21100;BME280;10708;50.824;4.408;2023-03-15T08:05:25;100840.06;;;4.52;100.00
21100;BME280;10708;50.824;4.408;2023-03-15T08:10:29;100861.53;;;4.89;100.00
21100;BME280;10708;50.824;4.408;2023-03-15T08:15:33;100873.81;;;5.70;100.00
21100;BME280;10708;50.824;4.408;2023-03-15T08:20:37;100883.16;;;6.61;100.00
21100;BME280;10708;50.824;4.408;2023-03-15T08:25:40;100878.44;;;7.38;100.00
21100;BME280;10708;50.824;4.408;2023-03-15T08:30:43;100877.66;;;8.22;100.00
21100;BME280;10708;50.824;4.408;2023-03-15T08:35:50;100887.59;;;8.49;100.00
21100;BME280;10708;50.824;4.408;2023-03-15T08:40:55;100887.50;;;8.11;100.00
21100;BME280;10708;50.824;4.408;2023-03-15T08:45:58;100891.94;;;7.63;100.00
21100;BME280;10708;50.824;4.408;2023-03-15T08:51:03;100890.94;;;8.95;100.00
21100;BME280;10708;50.824;4.408;2023-03-15T08:56:06;100890.94;;;8.58;100.00
21100;BME280;10708;50.824;4.408;2023-03-15T09:01:10;100897.38;;;7.54;100.00
21100;BME280;10708;50.824;4.408;2023-03-15T09:06:13;100899.38;;;6.86;100.00
21100;BME280;10708;50.824;4.408;2023-03-15T09:11:16;100896.25;;;6.61;100.00
21100;BME280;10708;50.824;4.408;2023-03-15T09:16:18;100890.84;;;6.09;100.00
21100;BME280;10708;50.824;4.408;2023-03-15T09:21:22;100892.75;;;5.95;100.00
21100;BME280;10708;50.824;4.408;2023-03-15T09:26:25;100888.38;;;5.98;100.00
21100;BME280;10708;50.824;4.408;2023-03-15T09:31:28;100903.44;;;5.70;100.00
21100;BME280;10708;50.824;4.408;2023-03-15T09:36:33;100900.66;;;5.87;100.00
21100;BME280;10708;50.824;4.408;2023-03-15T09:41:42;100895.66;;;5.64;100.00
21100;BME280;10708;50.824;4.408;2023-03-15T09:46:56;100897.78;;;6.11;100.00
21100;BME280;10708;50.824;4.408;2023-03-15T09:52:10;100900.09;;;6.95;100.00
21100;BME280;10708;50.824;4.408;2023-03-15T09:57:19;100897.50;;;7.92;100.00
21100;BME280;10708;50.824;4.408;2023-03-15T10:02:27;100890.53;;;7.45;100.00
21100;BME280;10708;50.824;4.408;2023-03-15T10:07:32;100890.06;;;7.22;100.00
21100;BME280;10708;50.824;4.408;2023-03-15T10:12:37;100894.09;;;6.27;100.00
21100;BME280;10708;50.824;4.408;2023-03-15T10:17:49;100893.00;;;6.45;100.00
21100;BME280;10708;50.824;4.408;2023-03-15T10:22:57;100908.41;;;5.98;100.00
21100;BME280;10708;50.824;4.408;2023-03-15T10:28:04;100911.59;;;6.21;100.00
21100;BME280;10708;50.824;4.408;2023-03-15T10:33:14;100915.03;;;6.26;100.00
21100;BME280;10708;50.824;4.408;2023-03-15T10:38:21;100921.28;;;6.16;100.00
21100;BME280;10708;50.824;4.408;2023-03-15T10:43:26;100934.41;;;6.10;100.00
21100;BME280;10708;50.824;4.408;2023-03-15T10:48:31;100934.41;;;6.10;100.00
21100;BME280;10708;50.824;4.408;2023-03-15T10:53:35;100940.22;;;6.35;100.00
21100;BME280;10708;50.824;4.408;2023-03-15T10:58:40;100939.94;;;6.57;100.00
21100;BME280;10708;50.824;4.408;2023-03-15T11:03:44;100936.09;;;6.80;100.00
21100;BME280;10708;50.824;4.408;2023-03-15T11:09:10;100941.28;;;6.84;100.00
21100;BME280;10708;50.824;4.408;2023-03-15T11:14:13;100930.13;;;6.70;100.00
21100;BME280;10708;50.824;4.408;2023-03-15T11:19:17;100947.06;;;7.06;100.00
21100;BME280;10708;50.824;4.408;2023-03-15T11:24:24;100947.88;;;7.10;100.00
21100;BME280;10708;50.824;4.408;2023-03-15T11:29:28;100951.13;;;7.25;100.00
21100;BME280;10708;50.824;4.408;2023-03-15T11:34:41;100948.69;;;7.13;100.00
21100;BME280;10708;50.824;4.408;2023-03-15T11:39:52;100942.44;;;7.23;100.00
21100;BME280;10708;50.824;4.408;2023-03-15T11:44:58;100940.28;;;7.48;100.00
21100;BME280;10708;50.824;4.408;2023-03-15T11:50:04;100943.00;;;7.42;100.00
21100;BME280;10708;50.824;4.408;2023-03-15T11:55:15;100936.63;;;7.58;100.00
21100;BME280;10708;50.824;4.408;2023-03-15T12:00:48;100943.47;;;7.65;100.00
21100;BME280;10708;50.824;4.408;2023-03-15T12:05:57;100928.94;;;7.48;100.00
21100;BME280;10708;50.824;4.408;2023-03-15T12:11:09;100931.38;;;7.57;100.00
21100;BME280;10708;50.824;4.408;2023-03-15T12:16:11;100923.03;;;7.35;100.00
21100;BME280;10708;50.824;4.408;2023-03-15T12:21:20;100921.06;;;7.48;100.00
21100;BME280;10708;50.824;4.408;2023-03-15T12:26:43;100922.69;;;7.55;100.00
21100;BME280;10708;50.824;4.408;2023-03-15T12:31:55;100902.41;;;7.64;100.00
21100;BME280;10708;50.824;4.408;2023-03-15T12:37:01;100901.66;;;8.04;100.00
21100;BME280;10708;50.824;4.408;2023-03-15T12:47:42;100890.81;;;8.19;100.00
21100;BME280;10708;50.824;4.408;2023-03-15T12:52:45;100884.34;;;8.38;100.00
21100;BME280;10708;50.824;4.408;2023-03-15T12:57:55;100903.88;;;8.24;100.00
21100;BME280;10708;50.824;4.408;2023-03-15T13:03:03;100906.16;;;8.40;100.00
21100;BME280;10708;50.824;4.408;2023-03-15T13:08:08;100900.56;;;8.57;100.00
21100;BME280;10708;50.824;4.408;2023-03-15T13:13:32;100898.63;;;8.65;100.00
21100;BME280;10708;50.824;4.408;2023-03-15T13:18:45;100906.75;;;8.92;100.00
21100;BME280;10708;50.824;4.408;2023-03-15T13:23:56;100892.84;;;8.88;100.00
21100;BME280;10708;50.824;4.408;2023-03-15T13:29:03;100898.88;;;8.92;100.00
21100;BME280;10708;50.824;4.408;2023-03-15T13:34:13;100909.84;;;9.09;100.00
21100;BME280;10708;50.824;4.408;2023-03-15T13:39:19;100900.13;;;9.12;100.00
21100;BME280;10708;50.824;4.408;2023-03-15T13:44:25;100908.63;;;9.23;100.00
21100;BME280;10708;50.824;4.408;2023-03-15T13:49:30;100902.59;;;9.18;100.00
21100;BME280;10708;50.824;4.408;2023-03-15T13:54:52;100910.03;;;9.01;100.00
21100;BME280;10708;50.824;4.408;2023-03-15T13:59:59;100916.28;;;8.97;100.00
21100;BME280;10708;50.824;4.408;2023-03-15T14:05:12;100918.38;;;8.81;100.00
21100;BME280;10708;50.824;4.408;2023-03-15T14:10:30;100914.59;;;8.56;100.00
21100;BME280;10708;50.824;4.408;2023-03-15T14:15:36;100909.88;;;8.29;100.00
21100;BME280;10708;50.824;4.408;2023-03-15T14:20:44;100911.31;;;8.45;100.00
21100;BME280;10708;50.824;4.408;2023-03-15T14:25:50;100907.44;;;8.63;100.00
21100;BME280;10708;50.824;4.408;2023-03-15T14:30:56;100911.00;;;8.59;100.00
21100;BME280;10708;50.824;4.408;2023-03-15T14:36:02;100908.00;;;8.77;100.00
21100;BME280;10708;50.824;4.408;2023-03-15T14:41:22;100915.06;;;8.73;100.00
21100;BME280;10708;50.824;4.408;2023-03-15T14:46:26;100902.59;;;8.83;100.00
21100;BME280;10708;50.824;4.408;2023-03-15T14:51:29;100903.28;;;8.89;100.00
21100;BME280;10708;50.824;4.408;2023-03-15T14:56:33;100898.91;;;8.90;100.00
21100;BME280;10708;50.824;4.408;2023-03-15T15:01:39;100898.38;;;8.76;100.00
21100;BME280;10708;50.824;4.408;2023-03-15T15:06:44;100892.03;;;8.86;100.00
21100;BME280;10708;50.824;4.408;2023-03-15T15:11:51;100881.56;;;8.83;100.00
21100;BME280;10708;50.824;4.408;2023-03-15T15:16:56;100877.03;;;8.89;100.00
21100;BME280;10708;50.824;4.408;2023-03-15T15:21:58;100881.28;;;8.95;100.00
21100;BME280;10708;50.824;4.408;2023-03-15T15:27:01;100882.25;;;8.91;100.00
21100;BME280;10708;50.824;4.408;2023-03-15T15:32:05;100885.91;;;8.85;100.00
21100;BME280;10708;50.824;4.408;2023-03-15T15:37:08;100884.19;;;8.83;100.00
21100;BME280;10708;50.824;4.408;2023-03-15T15:42:12;100883.31;;;8.84;100.00
21100;BME280;10708;50.824;4.408;2023-03-15T15:47:15;100872.63;;;8.90;100.00
21100;BME280;10708;50.824;4.408;2023-03-15T15:52:18;100859.50;;;8.90;100.00
21100;BME280;10708;50.824;4.408;2023-03-15T15:57:20;100854.38;;;8.85;100.00
21100;BME280;10708;50.824;4.408;2023-03-15T16:02:28;100852.75;;;8.80;100.00
21100;BME280;10708;50.824;4.408;2023-03-15T16:07:31;100843.25;;;8.76;100.00
21100;BME280;10708;50.824;4.408;2023-03-15T16:12:35;100839.78;;;8.74;100.00
21100;BME280;10708;50.824;4.408;2023-03-15T16:17:40;100846.84;;;8.70;100.00
21100;BME280;10708;50.824;4.408;2023-03-15T16:22:47;100848.53;;;8.74;100.00
21100;BME280;10708;50.824;4.408;2023-03-15T16:27:52;100843.38;;;8.70;100.00
21100;BME280;10708;50.824;4.408;2023-03-15T16:32:56;100841.00;;;8.59;100.00
21100;BME280;10708;50.824;4.408;2023-03-15T16:37:59;100843.75;;;8.53;100.00
21100;BME280;10708;50.824;4.408;2023-03-15T16:43:02;100841.34;;;8.44;100.00
21100;BME280;10708;50.824;4.408;2023-03-15T16:48:07;100839.75;;;8.38;100.00
21100;BME280;10708;50.824;4.408;2023-03-15T16:53:12;100843.38;;;8.31;100.00
21100;BME280;10708;50.824;4.408;2023-03-15T16:58:18;100856.47;;;8.33;100.00
21100;BME280;10708;50.824;4.408;2023-03-15T17:03:22;100864.44;;;8.27;100.00
21100;BME280;10708;50.824;4.408;2023-03-15T17:08:25;100853.28;;;8.17;100.00
21100;BME280;10708;50.824;4.408;2023-03-15T17:13:28;100859.50;;;8.11;100.00
21100;BME280;10708;50.824;4.408;2023-03-15T17:18:34;100859.69;;;8.04;100.00
21100;BME280;10708;50.824;4.408;2023-03-15T17:23:36;100856.34;;;7.97;100.00
21100;BME280;10708;50.824;4.408;2023-03-15T17:28:39;100854.88;;;7.81;100.00
21100;BME280;10708;50.824;4.408;2023-03-15T17:33:43;100848.81;;;7.79;100.00
21100;BME280;10708;50.824;4.408;2023-03-15T17:38:46;100859.59;;;7.64;100.00
21100;BME280;10708;50.824;4.408;2023-03-15T17:43:49;100862.28;;;7.61;100.00
21100;BME280;10708;50.824;4.408;2023-03-15T17:48:54;100871.16;;;7.54;100.00
21100;BME280;10708;50.824;4.408;2023-03-15T17:53:57;100865.22;;;7.44;100.00
21100;BME280;10708;50.824;4.408;2023-03-15T17:59:00;100868.00;;;7.35;100.00
21100;BME280;10708;50.824;4.408;2023-03-15T18:04:04;100863.72;;;7.29;100.00
21100;BME280;10708;50.824;4.408;2023-03-15T18:09:09;100872.59;;;7.22;100.00
21100;BME280;10708;50.824;4.408;2023-03-15T18:14:12;100872.69;;;7.16;100.00
21100;BME280;10708;50.824;4.408;2023-03-15T18:19:16;100878.03;;;7.10;100.00
21100;BME280;10708;50.824;4.408;2023-03-15T18:24:18;100875.50;;;7.06;100.00
21100;BME280;10708;50.824;4.408;2023-03-15T18:29:20;100886.88;;;7.03;100.00
21100;BME280;10708;50.824;4.408;2023-03-15T18:34:24;100879.94;;;6.99;100.00
21100;BME280;10708;50.824;4.408;2023-03-15T18:39:27;100878.31;;;6.93;100.00
21100;BME280;10708;50.824;4.408;2023-03-15T18:44:30;100885.34;;;6.90;100.00
21100;BME280;10708;50.824;4.408;2023-03-15T18:49:33;100879.34;;;6.83;100.00
21100;BME280;10708;50.824;4.408;2023-03-15T18:54:36;100882.00;;;6.80;100.00
21100;BME280;10708;50.824;4.408;2023-03-15T18:59:38;100886.41;;;6.78;100.00
21100;BME280;10708;50.824;4.408;2023-03-15T19:04:42;100875.16;;;6.72;100.00
21100;BME280;10708;50.824;4.408;2023-03-15T19:09:46;100877.84;;;6.69;100.00
21100;BME280;10708;50.824;4.408;2023-03-15T19:14:49;100866.56;;;6.63;100.00
21100;BME280;10708;50.824;4.408;2023-03-15T19:19:52;100864.00;;;6.59;100.00
21100;BME280;10708;50.824;4.408;2023-03-15T19:24:55;100860.56;;;6.57;100.00
21100;BME280;10708;50.824;4.408;2023-03-15T19:29:57;100858.84;;;6.53;100.00
21100;BME280;10708;50.824;4.408;2023-03-15T19:35:01;100862.38;;;6.50;100.00
21100;BME280;10708;50.824;4.408;2023-03-15T19:40:05;100862.47;;;6.46;100.00
21100;BME280;10708;50.824;4.408;2023-03-15T19:45:09;100853.81;;;6.39;100.00
21100;BME280;10708;50.824;4.408;2023-03-15T19:50:14;100856.53;;;6.33;100.00
21100;BME280;10708;50.824;4.408;2023-03-15T19:55:18;100855.75;;;6.26;100.00
21100;BME280;10708;50.824;4.408;2023-03-15T20:00:21;100855.00;;;6.18;100.00
21100;BME280;10708;50.824;4.408;2023-03-15T20:05:26;100855.94;;;6.10;100.00
21100;BME280;10708;50.824;4.408;2023-03-15T20:10:28;100857.81;;;6.00;100.00
21100;BME280;10708;50.824;4.408;2023-03-15T20:15:31;100852.75;;;5.88;100.00
21100;BME280;10708;50.824;4.408;2023-03-15T20:20:35;100851.13;;;5.76;100.00
21100;BME280;10708;50.824;4.408;2023-03-15T20:25:37;100859.94;;;5.66;100.00
21100;BME280;10708;50.824;4.408;2023-03-15T20:30:40;100860.91;;;5.57;100.00
21100;BME280;10708;50.824;4.408;2023-03-15T20:35:43;100857.53;;;5.48;100.00
21100;BME280;10708;50.824;4.408;2023-03-15T20:40:46;100859.34;;;5.40;100.00
21100;BME280;10708;50.824;4.408;2023-03-15T20:45:52;100858.53;;;5.32;100.00
21100;BME280;10708;50.824;4.408;2023-03-15T20:50:57;100850.78;;;5.24;100.00
21100;BME280;10708;50.824;4.408;2023-03-15T20:55:59;100858.69;;;5.18;100.00
21100;BME280;10708;50.824;4.408;2023-03-15T21:01:05;100843.03;;;5.15;100.00
21100;BME280;10708;50.824;4.408;2023-03-15T21:06:09;100836.97;;;5.14;100.00
21100;BME280;10708;50.824;4.408;2023-03-15T21:11:11;100834.34;;;5.13;100.00
21100;BME280;10708;50.824;4.408;2023-03-15T21:16:13;100827.41;;;5.12;100.00
21100;BME280;10708;50.824;4.408;2023-03-15T21:21:18;100831.72;;;5.14;100.00
21100;BME280;10708;50.824;4.408;2023-03-15T21:26:20;100835.22;;;5.15;100.00
21100;BME280;10708;50.824;4.408;2023-03-15T21:31:23;100833.47;;;5.17;100.00
21100;BME280;10708;50.824;4.408;2023-03-15T21:36:27;100850.00;;;5.16;100.00
21100;BME280;10708;50.824;4.408;2023-03-15T21:41:29;100837.81;;;5.16;100.00
21100;BME280;10708;50.824;4.408;2023-03-15T21:46:34;100826.50;;;5.19;100.00
21100;BME280;10708;50.824;4.408;2023-03-15T21:51:37;100831.72;;;5.16;100.00
21100;BME280;10708;50.824;4.408;2023-03-15T21:56:40;100828.25;;;5.14;100.00
21100;BME280;10708;50.824;4.408;2023-03-15T22:01:42;100821.38;;;5.08;100.00
21100;BME280;10708;50.824;4.408;2023-03-15T22:06:46;100813.56;;;5.05;100.00
21100;BME280;10708;50.824;4.408;2023-03-15T22:11:48;100821.38;;;5.05;100.00
21100;BME280;10708;50.824;4.408;2023-03-15T22:16:51;100814.41;;;5.09;100.00
21100;BME280;10708;50.824;4.408;2023-03-15T22:21:54;100805.63;;;5.13;100.00
21100;BME280;10708;50.824;4.408;2023-03-15T22:26:57;100808.22;;;5.17;100.00
21100;BME280;10708;50.824;4.408;2023-03-15T22:31:59;100808.16;;;5.22;100.00
21100;BME280;10708;50.824;4.408;2023-03-15T22:37:03;100802.03;;;5.25;100.00
21100;BME280;10708;50.824;4.408;2023-03-15T22:42:06;100806.31;;;5.30;100.00
21100;BME280;10708;50.824;4.408;2023-03-15T22:47:09;100795.84;;;5.36;100.00
21100;BME280;10708;50.824;4.408;2023-03-15T22:52:13;100789.66;;;5.42;100.00
21100;BME280;10708;50.824;4.408;2023-03-15T22:57:15;100781.78;;;5.48;100.00
21100;BME280;10708;50.824;4.408;2023-03-15T23:02:17;100796.50;;;5.55;100.00
21100;BME280;10708;50.824;4.408;2023-03-15T23:07:21;100780.75;;;5.60;100.00
21100;BME280;10708;50.824;4.408;2023-03-15T23:12:23;100776.31;;;5.66;100.00
21100;BME280;10708;50.824;4.408;2023-03-15T23:17:27;100775.38;;;5.72;100.00
21100;BME280;10708;50.824;4.408;2023-03-15T23:22:31;100772.72;;;5.76;100.00
21100;BME280;10708;50.824;4.408;2023-03-15T23:27:33;100770.09;;;5.78;100.00
21100;BME280;10708;50.824;4.408;2023-03-15T23:32:35;100768.38;;;5.75;100.00
21100;BME280;10708;50.824;4.408;2023-03-15T23:37:40;100770.97;;;5.75;100.00
21100;BME280;10708;50.824;4.408;2023-03-15T23:42:43;100770.97;;;5.77;100.00
21100;BME280;10708;50.824;4.408;2023-03-15T23:47:45;100763.97;;;5.79;100.00
21100;BME280;10708;50.824;4.408;2023-03-15T23:52:49;100761.31;;;5.80;100.00
21100;BME280;10708;50.824;4.408;2023-03-15T23:57:51;100760.41;;;5.83;100.00
